createdAt,value
2023-01-28T00:00:00.746Z,100941.56
2023-01-28T00:02:32.050Z,100936.54
2023-01-28T00:05:00.581Z,100935.73
2023-01-28T00:07:29.302Z,100937.09
2023-01-28T00:09:57.968Z,100932.55
2023-01-28T00:12:27.437Z,100931.67
2023-01-28T00:14:55.819Z,100930.36
2023-01-28T00:17:24.738Z,100928.14
2023-01-28T00:19:53.708Z,100922.52
2023-01-28T00:22:22.403Z,100917.71
2023-01-28T00:24:50.955Z,100917.81
2023-01-28T00:27:19.359Z,100918.92
2023-01-28T00:29:48.759Z,100922.11
2023-01-28T00:32:17.166Z,100918.69
2023-01-28T00:34:45.792Z,100916.74
2023-01-28T00:37:15.052Z,100911.17
2023-01-28T00:39:44.235Z,100908.15
2023-01-28T00:42:12.869Z,100907.05
2023-01-28T00:44:41.441Z,100906.16
2023-01-28T00:47:10.101Z,100903.69
2023-01-28T00:49:38.582Z,100899.66
2023-01-28T00:52:07.081Z,100893.16
2023-01-28T00:54:36.565Z,100892.87
2023-01-28T00:57:05.023Z,100895.23
2023-01-28T00:59:37.169Z,100898.44
2023-01-28T01:02:12.879Z,100888.73
2023-01-28T01:04:41.764Z,100897.79
2023-01-28T01:07:10.339Z,100892.73
2023-01-28T01:09:39.236Z,100884.80
2023-01-28T01:12:08.547Z,100881.78
2023-01-28T01:14:37.755Z,100879.25
2023-01-28T01:17:06.687Z,100874.27
2023-01-28T01:19:35.039Z,100873.85
2023-01-28T01:22:04.016Z,100868.52
2023-01-28T01:24:34.331Z,100859.77
2023-01-28T01:27:03.180Z,100862.91
2023-01-28T01:29:34.028Z,100872.73
2023-01-28T01:32:03.564Z,100871.17
2023-01-28T01:34:32.501Z,100863.54
2023-01-28T01:37:00.983Z,100861.38
2023-01-28T01:39:29.740Z,100862.40
2023-01-28T01:41:58.183Z,100863.17
2023-01-28T01:44:58.299Z,100859.70
2023-01-28T01:47:39.151Z,100854.09
2023-01-28T01:50:12.849Z,100858.86
2023-01-28T01:52:41.643Z,100866.71
2023-01-28T01:55:14.041Z,100872.36
2023-01-28T01:57:42.647Z,100872.55
2023-01-28T02:00:13.065Z,100881.30
2023-01-28T02:02:47.159Z,100885.45
2023-01-28T02:05:19.337Z,100877.56
2023-01-28T02:07:49.016Z,100876.36
2023-01-28T02:10:18.897Z,100873.48
2023-01-28T02:12:53.983Z,100876.11
2023-01-28T02:15:27.125Z,100870.36
2023-01-28T02:17:56.455Z,100861.56
2023-01-28T02:20:27.203Z,100851.59
2023-01-28T02:22:59.146Z,100853.43
2023-01-28T02:25:33.999Z,100855.27
2023-01-28T02:28:25.201Z,100852.29
2023-01-28T02:31:16.868Z,100850.45
2023-01-28T02:34:10.453Z,100849.10
2023-01-28T02:37:03.465Z,100850.40
2023-01-28T02:39:40.763Z,100849.02
2023-01-28T02:42:16.593Z,100849.39
2023-01-28T02:44:45.095Z,100847.75
2023-01-28T02:47:34.788Z,100845.44
2023-01-28T02:50:09.726Z,100844.05
2023-01-28T02:53:40.011Z,100834.05
2023-01-28T02:56:44.541Z,100832.13
2023-01-28T02:59:31.345Z,100835.73
2023-01-28T03:02:30.707Z,100838.23
2023-01-28T03:04:59.238Z,100839.33
2023-01-28T03:07:29.627Z,100834.77
2023-01-28T03:09:59.491Z,100835.45
2023-01-28T03:12:46.759Z,100830.81
2023-01-28T03:15:40.373Z,100832.52
2023-01-28T03:18:36.890Z,100826.33
2023-01-28T03:21:30.970Z,100827.24
2023-01-28T03:24:34.611Z,100820.79
2023-01-28T03:27:28.861Z,100831.94
2023-01-28T03:30:32.846Z,100834.86
2023-01-28T03:33:23.503Z,100825.34
2023-01-28T03:36:10.875Z,100825.55
2023-01-28T03:38:48.905Z,100823.98
2023-01-28T03:41:25.809Z,100819.84
2023-01-28T03:43:56.510Z,100821.46
2023-01-28T03:46:25.395Z,100817.52
2023-01-28T03:48:54.678Z,100818.16
2023-01-28T03:51:23.512Z,100820.42
2023-01-28T03:53:52.214Z,100813.64
2023-01-28T03:56:27.146Z,100813.55
2023-01-28T03:58:57.472Z,100821.66
2023-01-28T04:01:26.014Z,100820.98
2023-01-28T04:03:55.136Z,100819.44
2023-01-28T04:06:31.253Z,100826.52
2023-01-28T04:09:18.591Z,100828.77
2023-01-28T04:12:07.753Z,100833.66
2023-01-28T04:14:42.899Z,100828.64
2023-01-28T04:17:15.414Z,100824.27
2023-01-28T04:19:44.931Z,100817.47
2023-01-28T04:22:13.956Z,100817.56
2023-01-28T04:24:48.003Z,100822.77
2023-01-28T04:27:17.503Z,100823.73
2023-01-28T04:29:48.751Z,100825.73
2023-01-28T04:32:40.901Z,100830.59
2023-01-28T04:35:29.190Z,100837.45
2023-01-28T04:38:04.343Z,100837.48
2023-01-28T04:40:50.560Z,100837.13
2023-01-28T04:43:27.740Z,100838.25
2023-01-28T04:46:14.067Z,100835.02
2023-01-28T04:48:49.549Z,100834.88
2023-01-28T04:51:33.797Z,100837.09
2023-01-28T04:54:28.492Z,100841.60
2023-01-28T04:57:00.756Z,100840.86
2023-01-28T04:59:30.062Z,100841.55
2023-01-28T05:01:58.771Z,100845.62
2023-01-28T05:04:27.970Z,100842.78
2023-01-28T05:06:56.592Z,100842.27
2023-01-28T05:09:29.111Z,100839.36
2023-01-28T05:11:57.959Z,100836.88
2023-01-28T05:14:26.385Z,100841.58
2023-01-28T05:17:09.818Z,100843.21
2023-01-28T05:19:39.145Z,100844.83
2023-01-28T05:22:12.463Z,100849.20
2023-01-28T05:24:44.657Z,100851.29
2023-01-28T05:27:13.432Z,100849.92
2023-01-28T05:29:41.894Z,100850.08
2023-01-28T05:32:10.880Z,100848.91
2023-01-28T05:34:39.464Z,100849.20
2023-01-28T05:37:12.386Z,100850.66
2023-01-28T05:39:40.937Z,100850.15
2023-01-28T05:42:09.832Z,100853.46
2023-01-28T05:44:43.623Z,100847.64
2023-01-28T05:47:18.036Z,100853.23
2023-01-28T05:50:10.315Z,100857.16
2023-01-28T05:52:45.106Z,100858.13
2023-01-28T05:55:22.312Z,100861.25
2023-01-28T05:57:52.865Z,100858.61
2023-01-28T06:00:25.177Z,100858.80
2023-01-28T06:02:53.776Z,100867.05
2023-01-28T06:05:23.468Z,100862.62
2023-01-28T06:07:52.530Z,100863.13
2023-01-28T06:10:21.940Z,100866.66
2023-01-28T06:12:50.995Z,100857.28
2023-01-28T06:15:39.390Z,100858.98
2023-01-28T06:18:25.412Z,100856.98
2023-01-28T06:20:54.760Z,100855.69
2023-01-28T06:23:23.475Z,100848.63
2023-01-28T06:25:56.617Z,100846.65
2023-01-28T06:28:26.408Z,100845.56
2023-01-28T06:30:55.082Z,100852.57
2023-01-28T06:33:26.341Z,100848.05
2023-01-28T06:35:59.802Z,100844.79
2023-01-28T06:38:28.485Z,100834.46
2023-01-28T06:40:58.437Z,100850.75
2023-01-28T06:43:30.892Z,100855.23
2023-01-28T06:45:59.612Z,100856.94
2023-01-28T06:48:28.331Z,100851.82
2023-01-28T06:51:01.042Z,100859.99
2023-01-28T06:53:33.253Z,100854.04
2023-01-28T06:56:01.710Z,100848.79
2023-01-28T06:58:30.460Z,100847.86
2023-01-28T07:00:59.315Z,100844.77
2023-01-28T07:03:27.935Z,100833.73
2023-01-28T07:05:56.376Z,100833.23
2023-01-28T07:08:24.820Z,100832.48
2023-01-28T07:10:53.478Z,100821.95
2023-01-28T07:13:22.311Z,100811.33
2023-01-28T07:15:50.932Z,100819.34
2023-01-28T07:18:19.331Z,100820.25
2023-01-28T07:20:48.006Z,100834.51
2023-01-28T07:23:17.836Z,100840.60
2023-01-28T07:25:46.219Z,100848.84
2023-01-28T07:28:14.520Z,100846.73
2023-01-28T07:30:43.032Z,100852.23
2023-01-28T07:33:11.649Z,100836.63
2023-01-28T07:35:40.057Z,100852.39
2023-01-28T07:38:08.488Z,100859.98
2023-01-28T07:40:37.138Z,100869.65
2023-01-28T07:43:07.409Z,100873.60
2023-01-28T07:45:40.298Z,100873.64
2023-01-28T07:48:10.744Z,100865.64
2023-01-28T07:50:40.410Z,100865.18
2023-01-28T07:53:11.517Z,100870.15
2023-01-28T07:55:40.744Z,100864.63
2023-01-28T07:58:11.055Z,100861.09
2023-01-28T08:00:39.806Z,100862.11
2023-01-28T08:03:16.100Z,100858.31
2023-01-28T08:05:48.632Z,100860.00
2023-01-28T08:08:17.698Z,100872.55
2023-01-28T08:10:46.093Z,100863.17
2023-01-28T08:13:15.899Z,100864.17
2023-01-28T08:15:44.824Z,100873.11
2023-01-28T08:18:14.236Z,100875.56
2023-01-28T08:20:47.693Z,100876.04
2023-01-28T08:23:18.952Z,100871.69
2023-01-28T08:25:48.647Z,100869.16
2023-01-28T08:28:18.608Z,100871.58
2023-01-28T08:30:47.281Z,100872.27
2023-01-28T08:33:16.702Z,100867.48
2023-01-28T08:35:47.264Z,100857.13
2023-01-28T08:38:17.977Z,100851.16
2023-01-28T08:40:54.235Z,100849.41
2023-01-28T08:43:22.716Z,100847.04
2023-01-28T08:45:51.666Z,100843.68
2023-01-28T08:48:20.423Z,100832.48
2023-01-28T08:50:49.041Z,100833.90
2023-01-28T08:53:19.219Z,100828.40
2023-01-28T08:55:47.698Z,100819.80
2023-01-28T08:58:17.473Z,100815.20
2023-01-28T09:00:46.081Z,100820.15
2023-01-28T09:03:14.478Z,100817.83
2023-01-28T09:05:44.053Z,100814.12
2023-01-28T09:08:14.678Z,100808.67
2023-01-28T09:10:43.471Z,100803.85
2023-01-28T09:13:14.351Z,100799.05
2023-01-28T09:15:43.351Z,100798.48
2023-01-28T09:18:11.891Z,100796.87
2023-01-28T09:20:40.502Z,100801.17
2023-01-28T09:23:08.997Z,100802.80
2023-01-28T09:25:37.802Z,100800.73
2023-01-28T09:28:06.618Z,100793.50
2023-01-28T09:30:37.380Z,100785.21
2023-01-28T09:33:06.500Z,100783.87
2023-01-28T09:35:35.105Z,100780.98
2023-01-28T09:38:03.733Z,100778.13
2023-01-28T09:40:41.210Z,100780.91
2023-01-28T09:43:20.144Z,100773.79
2023-01-28T09:45:49.819Z,100770.83
2023-01-28T09:48:32.939Z,100760.40
2023-01-28T09:51:02.663Z,100768.27
2023-01-28T09:53:32.625Z,100765.34
2023-01-28T09:56:02.316Z,100766.98
2023-01-28T09:58:31.936Z,100774.91
2023-01-28T10:01:14.619Z,100765.89
2023-01-28T10:03:46.034Z,100767.46
2023-01-28T10:06:29.161Z,100762.63
2023-01-28T10:08:57.511Z,100760.86
2023-01-28T10:11:39.736Z,100760.77
2023-01-28T10:14:18.388Z,100757.64
2023-01-28T10:16:50.610Z,100752.53
2023-01-28T10:19:28.859Z,100746.90
2023-01-28T10:22:01.886Z,100738.34
2023-01-28T10:24:34.220Z,100734.33
2023-01-28T10:27:22.931Z,100741.38
2023-01-28T10:29:51.510Z,100733.42
2023-01-28T10:32:37.280Z,100733.75
2023-01-28T10:35:06.104Z,100724.79
2023-01-28T10:37:35.906Z,100713.45
2023-01-28T10:40:04.830Z,100708.89
2023-01-28T10:42:35.689Z,100714.05
2023-01-28T10:45:10.656Z,100717.36
2023-01-28T10:47:43.709Z,100717.63
2023-01-28T10:50:28.395Z,100709.18
2023-01-28T10:52:57.861Z,100707.95
2023-01-28T10:55:30.415Z,100704.70
2023-01-28T10:57:58.919Z,100698.26
2023-01-28T11:00:35.981Z,100697.71
2023-01-28T11:03:04.541Z,100695.94
2023-01-28T11:05:32.983Z,100688.57
2023-01-28T11:08:11.377Z,100694.59
2023-01-28T11:10:41.240Z,100702.94
2023-01-28T11:13:21.299Z,100702.79
2023-01-28T11:16:02.589Z,100708.36
2023-01-28T11:18:55.528Z,100706.98
2023-01-28T11:21:28.216Z,100699.42
2023-01-28T11:24:02.365Z,100700.86
2023-01-28T11:26:43.445Z,100695.95
2023-01-28T11:29:33.725Z,100707.52
2023-01-28T11:32:02.594Z,100705.70
2023-01-28T11:34:53.365Z,100701.39
2023-01-28T11:37:24.906Z,100694.54
2023-01-28T11:40:23.858Z,100696.31
2023-01-28T11:42:52.911Z,100692.23
2023-01-28T11:45:31.432Z,100687.36
2023-01-28T11:48:23.246Z,100691.30
2023-01-28T11:50:58.578Z,100695.06
2023-01-28T11:53:32.366Z,100687.31
2023-01-28T11:56:24.449Z,100686.98
2023-01-28T11:59:06.439Z,100681.88
2023-01-28T12:01:38.650Z,100679.80
2023-01-28T12:04:23.972Z,100680.86
2023-01-28T12:06:59.943Z,100678.83
2023-01-28T12:09:44.253Z,100677.86
2023-01-28T12:12:27.552Z,100678.42
2023-01-28T12:15:04.757Z,100675.16
2023-01-28T12:17:45.960Z,100667.44
2023-01-28T12:20:17.591Z,100664.73
2023-01-28T12:22:58.161Z,100670.78
2023-01-28T12:26:06.438Z,100671.20
2023-01-28T12:28:58.675Z,100674.70
2023-01-28T12:31:31.820Z,100676.13
2023-01-28T12:34:38.884Z,100672.19
2023-01-28T12:37:16.794Z,100674.84
2023-01-28T12:40:23.121Z,100663.88
2023-01-28T12:43:03.516Z,100669.73
2023-01-28T12:45:42.954Z,100671.77
2023-01-28T12:48:45.707Z,100679.30
2023-01-28T12:51:25.520Z,100681.41
2023-01-28T12:53:57.892Z,100676.36
2023-01-28T12:56:33.696Z,100678.05
2023-01-28T12:59:27.794Z,100679.88
2023-01-28T13:02:11.974Z,100677.42
2023-01-28T13:04:43.076Z,100678.91
2023-01-28T13:07:44.231Z,100678.33
2023-01-28T13:10:30.364Z,100679.44
2023-01-28T13:13:37.920Z,100682.70
2023-01-28T13:20:57.191Z,100687.29
2023-01-28T13:23:51.509Z,100687.22
2023-01-28T13:26:24.767Z,100686.45
2023-01-28T13:28:54.369Z,100692.73
2023-01-28T13:31:24.062Z,100684.22
2023-01-28T13:33:54.969Z,100686.61
2023-01-28T13:36:34.809Z,100687.37
2023-01-28T13:39:24.302Z,100680.79
2023-01-28T13:41:54.471Z,100687.73
2023-01-28T13:44:26.020Z,100686.09
2023-01-28T13:46:56.846Z,100685.86
2023-01-28T13:49:46.199Z,100685.16
2023-01-28T13:52:28.706Z,100684.94
2023-01-28T13:55:02.073Z,100685.77
2023-01-28T13:57:33.771Z,100684.45
2023-01-28T14:00:08.907Z,100695.96
2023-01-28T14:03:00.243Z,100694.48
2023-01-28T14:05:56.915Z,100692.16
2023-01-28T14:08:34.840Z,100695.46
2023-01-28T14:11:31.504Z,100698.20
2023-01-28T14:14:28.619Z,100694.25
2023-01-28T14:17:37.236Z,100695.45
2023-01-28T14:20:14.498Z,100698.17
2023-01-28T14:22:43.266Z,100700.00
2023-01-28T14:25:14.150Z,100701.98
2023-01-28T14:27:45.276Z,100699.45
2023-01-28T14:30:19.971Z,100698.63
2023-01-28T14:32:50.486Z,100702.09
2023-01-28T14:35:24.564Z,100702.21
2023-01-28T14:37:54.980Z,100712.61
2023-01-28T14:40:24.217Z,100715.52
2023-01-28T14:42:53.940Z,100720.38
2023-01-28T14:46:05.017Z,100725.79
2023-01-28T14:48:46.198Z,100719.95
2023-01-28T14:51:33.156Z,100726.45
2023-01-28T14:54:08.097Z,100735.07
2023-01-28T14:56:49.473Z,100729.17
2023-01-28T14:59:21.538Z,100736.36
2023-01-28T15:01:54.612Z,100737.64
2023-01-28T15:04:31.735Z,100738.06
2023-01-28T15:07:26.548Z,100738.65
2023-01-28T15:10:06.694Z,100734.34
2023-01-28T15:12:39.828Z,100730.16
2023-01-28T15:15:50.060Z,100731.67
2023-01-28T15:18:22.844Z,100737.52
2023-01-28T15:20:52.800Z,100741.65
2023-01-28T15:23:29.710Z,100748.39
2023-01-28T15:25:59.475Z,100747.33
2023-01-28T15:28:31.966Z,100751.55
2023-01-28T15:31:00.586Z,100755.34
2023-01-28T15:33:32.318Z,100758.15
2023-01-28T15:36:00.889Z,100759.26
2023-01-28T15:38:29.472Z,100755.80
2023-01-28T15:41:01.937Z,100758.84
2023-01-28T15:43:37.376Z,100755.91
2023-01-28T15:46:11.875Z,100761.00
2023-01-28T15:48:49.963Z,100760.30
2023-01-28T15:51:29.361Z,100762.33
2023-01-28T15:54:03.572Z,100758.71
2023-01-28T15:56:32.714Z,100762.01
2023-01-28T15:59:23.580Z,100765.27
2023-01-28T16:02:20.266Z,100762.90
2023-01-28T16:04:59.589Z,100763.48
2023-01-28T16:07:32.993Z,100764.40
2023-01-28T16:10:02.832Z,100760.88
2023-01-28T16:12:32.371Z,100762.39
2023-01-28T16:15:01.773Z,100765.05
2023-01-28T16:17:40.552Z,100766.69
2023-01-28T16:20:17.767Z,100763.92
2023-01-28T16:22:46.427Z,100764.71
2023-01-28T16:25:24.311Z,100760.37
2023-01-28T16:27:53.159Z,100766.77
2023-01-28T16:30:21.666Z,100767.52
2023-01-28T16:32:51.890Z,100767.89
2023-01-28T16:35:22.601Z,100772.41
2023-01-28T16:37:51.834Z,100767.06
2023-01-28T16:40:22.795Z,100766.67
2023-01-28T16:42:56.235Z,100762.75
2023-01-28T16:45:25.315Z,100762.24
2023-01-28T16:47:53.806Z,100764.84
2023-01-28T16:50:23.180Z,100761.73
2023-01-28T16:52:52.198Z,100758.58
2023-01-28T16:55:21.692Z,100757.97
2023-01-28T16:57:53.224Z,100756.11
2023-01-28T17:00:26.395Z,100757.06
2023-01-28T17:02:55.255Z,100755.92
2023-01-28T17:05:27.049Z,100753.86
2023-01-28T17:08:04.362Z,100749.27
2023-01-28T17:10:33.229Z,100755.12
2023-01-28T17:13:01.821Z,100749.95
2023-01-28T17:15:30.859Z,100755.64
2023-01-28T17:17:59.745Z,100752.00
2023-01-28T17:20:32.937Z,100753.22
2023-01-28T17:23:01.935Z,100750.81
2023-01-28T17:25:30.467Z,100754.73
2023-01-28T17:27:59.067Z,100753.45
2023-01-28T17:30:27.577Z,100749.41
2023-01-28T17:32:56.462Z,100748.91
2023-01-28T17:35:25.043Z,100740.25
2023-01-28T17:37:56.368Z,100746.05
2023-01-28T17:40:25.159Z,100734.55
2023-01-28T17:42:55.614Z,100730.88
2023-01-28T17:45:31.471Z,100729.95
2023-01-28T17:48:01.913Z,100733.31
2023-01-28T17:50:30.838Z,100729.65
2023-01-28T17:52:59.438Z,100729.10
2023-01-28T17:55:27.962Z,100725.14
2023-01-28T17:57:56.359Z,100726.69
2023-01-28T18:00:27.163Z,100727.25
2023-01-28T18:02:55.663Z,100719.80
2023-01-28T18:05:24.127Z,100718.08
2023-01-28T18:07:52.889Z,100716.41
2023-01-28T18:10:21.784Z,100714.20
2023-01-28T18:12:51.544Z,100722.75
2023-01-28T18:15:20.170Z,100714.22
2023-01-28T18:17:53.368Z,100713.70
2023-01-28T18:20:22.219Z,100712.16
2023-01-28T18:22:50.653Z,100712.30
2023-01-28T18:25:21.103Z,100711.54
2023-01-28T18:27:49.906Z,100705.34
2023-01-28T18:30:18.674Z,100704.13
2023-01-28T18:32:47.559Z,100698.38
2023-01-28T18:35:27.659Z,100690.63
2023-01-28T18:37:56.042Z,100694.10
2023-01-28T18:40:25.158Z,100690.63
2023-01-28T18:42:53.544Z,100693.95
2023-01-28T18:45:22.536Z,100688.52
2023-01-28T18:47:51.568Z,100690.70
2023-01-28T18:50:20.235Z,100684.31
2023-01-28T18:52:49.339Z,100683.86
2023-01-28T18:55:19.112Z,100685.40
2023-01-28T18:57:48.585Z,100681.84
2023-01-28T19:00:19.230Z,100680.96
2023-01-28T19:02:47.548Z,100681.00
2023-01-28T19:05:17.766Z,100677.16
2023-01-28T19:07:47.057Z,100675.59
2023-01-28T19:10:16.967Z,100680.97
2023-01-28T19:12:46.541Z,100682.02
2023-01-28T19:15:15.858Z,100691.13
2023-01-28T19:17:45.954Z,100691.82
2023-01-28T19:20:14.373Z,100693.73
2023-01-28T19:22:42.825Z,100688.84
2023-01-28T19:25:11.609Z,100685.13
2023-01-28T19:27:40.218Z,100684.98
2023-01-28T19:30:09.450Z,100685.37
2023-01-28T19:32:38.378Z,100689.61
2023-01-28T19:35:07.570Z,100688.10
2023-01-28T19:37:36.422Z,100685.67
2023-01-28T19:40:06.286Z,100683.69
2023-01-28T19:42:35.292Z,100684.30
2023-01-28T19:45:23.594Z,100678.55
2023-01-28T19:47:52.591Z,100679.05
2023-01-28T19:50:21.112Z,100679.47
2023-01-28T19:52:49.798Z,100675.39
2023-01-28T19:55:18.583Z,100675.66
2023-01-28T19:57:47.413Z,100676.20
2023-01-28T20:00:16.210Z,100668.55
2023-01-28T20:02:44.601Z,100671.98
2023-01-28T20:05:16.417Z,100667.36
2023-01-28T20:07:45.329Z,100667.55
2023-01-28T20:10:14.183Z,100661.94
2023-01-28T20:12:42.837Z,100658.77
2023-01-28T20:15:11.780Z,100656.06
2023-01-28T20:17:40.423Z,100661.02
2023-01-28T20:20:12.061Z,100663.59
2023-01-28T20:22:41.855Z,100662.52
2023-01-28T20:25:10.471Z,100666.77
2023-01-28T20:27:39.319Z,100664.20
2023-01-28T20:30:09.072Z,100667.95
2023-01-28T20:32:37.913Z,100667.39
2023-01-28T20:35:06.721Z,100664.94
2023-01-28T20:37:35.648Z,100663.08
2023-01-28T20:40:04.577Z,100662.14
2023-01-28T20:42:33.048Z,100661.05
2023-01-28T20:45:01.504Z,100654.85
2023-01-28T20:47:31.021Z,100656.77
2023-01-28T20:49:59.846Z,100657.88
2023-01-28T20:52:28.231Z,100659.15
2023-01-28T20:54:56.849Z,100656.98
2023-01-28T20:57:25.785Z,100662.91
2023-01-28T20:59:54.352Z,100658.81
2023-01-28T21:02:23.163Z,100659.96
2023-01-28T21:04:51.704Z,100654.89
2023-01-28T21:07:22.981Z,100651.26
2023-01-28T21:09:51.658Z,100647.02
2023-01-28T21:12:20.091Z,100648.25
2023-01-28T21:14:49.526Z,100643.61
2023-01-28T21:17:21.243Z,100643.90
2023-01-28T21:19:49.675Z,100638.48
2023-01-28T21:22:18.192Z,100639.30
2023-01-28T21:24:51.329Z,100633.05
2023-01-28T21:27:25.927Z,100635.27
2023-01-28T21:29:55.059Z,100639.06
2023-01-28T21:32:26.624Z,100635.57
2023-01-28T21:34:56.246Z,100633.42
2023-01-28T21:37:25.172Z,100630.56
2023-01-28T21:39:53.599Z,100629.27
2023-01-28T21:42:22.584Z,100631.11
2023-01-28T21:44:51.111Z,100631.96
2023-01-28T21:47:19.507Z,100634.63
2023-01-28T21:49:48.066Z,100631.71
2023-01-28T21:52:16.958Z,100629.86
2023-01-28T21:54:45.863Z,100631.80
2023-01-28T21:57:15.154Z,100624.97
2023-01-28T21:59:43.841Z,100628.33
2023-01-28T22:02:13.878Z,100626.13
2023-01-28T22:04:46.324Z,100627.64
2023-01-28T22:07:17.458Z,100634.35
2023-01-28T22:09:46.458Z,100635.49
2023-01-28T22:12:16.769Z,100637.83
2023-01-28T22:14:46.942Z,100640.03
2023-01-28T22:17:18.746Z,100641.31
2023-01-28T22:19:48.437Z,100641.92
2023-01-28T22:22:17.116Z,100641.19
2023-01-28T22:24:45.547Z,100640.23
2023-01-28T22:27:14.375Z,100638.65
2023-01-28T22:29:42.750Z,100633.13
2023-01-28T22:32:11.429Z,100631.80
2023-01-28T22:34:39.898Z,100630.08
2023-01-28T22:37:08.343Z,100626.15
2023-01-28T22:39:36.768Z,100624.42
2023-01-28T22:42:05.516Z,100625.66
2023-01-28T22:44:34.283Z,100619.15
2023-01-28T22:47:03.514Z,100620.20
2023-01-28T22:49:31.943Z,100620.44
2023-01-28T22:52:00.654Z,100619.38
2023-01-28T22:54:29.162Z,100620.88
2023-01-28T22:56:57.635Z,100617.46
2023-01-28T22:59:26.526Z,100618.91
2023-01-28T23:01:55.104Z,100615.52
2023-01-28T23:04:23.343Z,100618.35
2023-01-28T23:06:52.142Z,100614.59
2023-01-28T23:09:20.459Z,100612.59
2023-01-28T23:11:49.315Z,100612.21
2023-01-28T23:14:36.164Z,100613.04
2023-01-28T23:17:23.287Z,100613.54
2023-01-28T23:20:11.477Z,100609.33
2023-01-28T23:22:58.621Z,100610.88
2023-01-28T23:25:27.148Z,100611.84
2023-01-28T23:27:55.587Z,100612.23
2023-01-28T23:30:25.499Z,100616.08
2023-01-28T23:32:56.784Z,100616.63
2023-01-28T23:35:27.729Z,100611.54
2023-01-28T23:37:57.095Z,100613.56
2023-01-28T23:40:27.427Z,100613.24
2023-01-28T23:42:56.455Z,100612.09
2023-01-28T23:45:25.367Z,100613.55
2023-01-28T23:47:54.600Z,100605.94
2023-01-28T23:50:23.204Z,100605.84
2023-01-28T23:52:54.182Z,100605.84
2023-01-28T23:55:22.746Z,100606.91
2023-01-28T23:57:51.538Z,100607.77
